sensor_id;sensor_type;location;lat;lon;timestamp;P1;durP1;ratioP1;P2;durP2;ratioP2
32812;SDS011;19162;48.254;11.454;2023-04-30T00:02:52;5.18;;;4.78;;
32812;SDS011;19162;48.254;11.454;2023-04-30T00:05:52;4.87;;;4.47;;
32812;SDS011;19162;48.254;11.454;2023-04-30T00:08:52;5.00;;;4.60;;
32812;SDS011;19162;48.254;11.454;2023-04-30T00:11:52;5.20;;;4.80;;
32812;SDS011;19162;48.254;11.454;2023-04-30T00:14:52;4.50;;;4.20;;
32812;SDS011;19162;48.254;11.454;2023-04-30T00:17:55;5.15;;;4.75;;
32812;SDS011;19162;48.254;11.454;2023-04-30T00:20:55;4.97;;;4.53;;
32812;SDS011;19162;48.254;11.454;2023-04-30T00:23:55;5.25;;;4.85;;
32812;SDS011;19162;48.254;11.454;2023-04-30T00:26:55;5.83;;;5.20;;
32812;SDS011;19162;48.254;11.454;2023-04-30T00:29:56;5.27;;;4.87;;
32812;SDS011;19162;48.254;11.454;2023-04-30T00:32:56;5.10;;;4.72;;
32812;SDS011;19162;48.254;11.454;2023-04-30T00:35:56;5.25;;;4.93;;
32812;SDS011;19162;48.254;11.454;2023-04-30T00:38:56;5.00;;;4.53;;
32812;SDS011;19162;48.254;11.454;2023-04-30T00:41:57;5.03;;;4.50;;
32812;SDS011;19162;48.254;11.454;2023-04-30T00:44:57;4.90;;;4.50;;
32812;SDS011;19162;48.254;11.454;2023-04-30T00:47:57;5.55;;;5.10;;
32812;SDS011;19162;48.254;11.454;2023-04-30T00:50:57;4.78;;;4.38;;
32812;SDS011;19162;48.254;11.454;2023-04-30T00:53:59;6.78;;;5.28;;
32812;SDS011;19162;48.254;11.454;2023-04-30T00:57:00;5.35;;;4.85;;
32812;SDS011;19162;48.254;11.454;2023-04-30T01:00:01;5.20;;;4.80;;
32812;SDS011;19162;48.254;11.454;2023-04-30T01:03:01;5.33;;;4.93;;
32812;SDS011;19162;48.254;11.454;2023-04-30T01:06:02;4.85;;;4.47;;
32812;SDS011;19162;48.254;11.454;2023-04-30T01:09:02;5.05;;;4.40;;
32812;SDS011;19162;48.254;11.454;2023-04-30T01:15:37;4.80;;;4.45;;
32812;SDS011;19162;48.254;11.454;2023-04-30T01:18:43;5.07;;;4.68;;
32812;SDS011;19162;48.254;11.454;2023-04-30T01:21:45;5.13;;;4.68;;
32812;SDS011;19162;48.254;11.454;2023-04-30T01:24:56;5.60;;;5.10;;
32812;SDS011;19162;48.254;11.454;2023-04-30T01:28:04;5.50;;;5.10;;
32812;SDS011;19162;48.254;11.454;2023-04-30T01:31:10;5.65;;;5.15;;
32812;SDS011;19162;48.254;11.454;2023-04-30T01:34:11;5.15;;;4.78;;
32812;SDS011;19162;48.254;11.454;2023-04-30T01:40:23;5.80;;;5.30;;
32812;SDS011;19162;48.254;11.454;2023-04-30T01:43:37;5.68;;;5.15;;
32812;SDS011;19162;48.254;11.454;2023-04-30T01:46:38;6.15;;;5.55;;
32812;SDS011;19162;48.254;11.454;2023-04-30T01:53:04;6.10;;;5.60;;
32812;SDS011;19162;48.254;11.454;2023-04-30T01:56:05;5.90;;;5.40;;
32812;SDS011;19162;48.254;11.454;2023-04-30T01:59:08;6.13;;;5.65;;
32812;SDS011;19162;48.254;11.454;2023-04-30T02:02:09;5.47;;;5.03;;
32812;SDS011;19162;48.254;11.454;2023-04-30T02:05:09;6.10;;;5.50;;
32812;SDS011;19162;48.254;11.454;2023-04-30T02:08:09;5.78;;;5.32;;
32812;SDS011;19162;48.254;11.454;2023-04-30T02:11:09;6.32;;;5.93;;
32812;SDS011;19162;48.254;11.454;2023-04-30T02:14:10;6.53;;;5.85;;
32812;SDS011;19162;48.254;11.454;2023-04-30T02:17:10;6.37;;;5.97;;
32812;SDS011;19162;48.254;11.454;2023-04-30T02:20:10;6.88;;;6.28;;
32812;SDS011;19162;48.254;11.454;2023-04-30T02:23:10;7.50;;;6.68;;
32812;SDS011;19162;48.254;11.454;2023-04-30T02:26:11;6.93;;;6.30;;
32812;SDS011;19162;48.254;11.454;2023-04-30T02:29:11;7.32;;;6.72;;
32812;SDS011;19162;48.254;11.454;2023-04-30T02:32:11;7.40;;;6.80;;
32812;SDS011;19162;48.254;11.454;2023-04-30T02:35:11;8.37;;;7.67;;
32812;SDS011;19162;48.254;11.454;2023-04-30T02:38:11;8.13;;;7.32;;
32812;SDS011;19162;48.254;11.454;2023-04-30T02:41:12;8.52;;;7.82;;
32812;SDS011;19162;48.254;11.454;2023-04-30T02:44:12;8.57;;;7.78;;
32812;SDS011;19162;48.254;11.454;2023-04-30T02:47:12;8.23;;;7.53;;
32812;SDS011;19162;48.254;11.454;2023-04-30T02:50:12;8.33;;;7.67;;
32812;SDS011;19162;48.254;11.454;2023-04-30T02:53:13;8.32;;;7.63;;
32812;SDS011;19162;48.254;11.454;2023-04-30T02:56:13;8.55;;;7.85;;
32812;SDS011;19162;48.254;11.454;2023-04-30T02:59:13;8.80;;;8.00;;
32812;SDS011;19162;48.254;11.454;2023-04-30T03:02:13;8.25;;;7.65;;
32812;SDS011;19162;48.254;11.454;2023-04-30T03:05:13;8.77;;;8.07;;
32812;SDS011;19162;48.254;11.454;2023-04-30T03:08:14;8.93;;;8.23;;
32812;SDS011;19162;48.254;11.454;2023-04-30T03:11:14;8.85;;;8.18;;
32812;SDS011;19162;48.254;11.454;2023-04-30T03:14:15;8.57;;;7.88;;
32812;SDS011;19162;48.254;11.454;2023-04-30T03:17:15;9.27;;;8.32;;
32812;SDS011;19162;48.254;11.454;2023-04-30T03:20:15;8.50;;;7.90;;
32812;SDS011;19162;48.254;11.454;2023-04-30T03:23:15;8.77;;;8.07;;
32812;SDS011;19162;48.254;11.454;2023-04-30T03:26:17;8.65;;;7.85;;
32812;SDS011;19162;48.254;11.454;2023-04-30T03:29:17;8.87;;;7.87;;
32812;SDS011;19162;48.254;11.454;2023-04-30T03:32:17;8.13;;;7.43;;
32812;SDS011;19162;48.254;11.454;2023-04-30T03:35:17;9.30;;;8.60;;
32812;SDS011;19162;48.254;11.454;2023-04-30T03:38:18;8.20;;;7.60;;
32812;SDS011;19162;48.254;11.454;2023-04-30T03:41:18;8.27;;;7.65;;
32812;SDS011;19162;48.254;11.454;2023-04-30T03:44:18;8.43;;;7.83;;
32812;SDS011;19162;48.254;11.454;2023-04-30T03:47:18;9.40;;;8.68;;
32812;SDS011;19162;48.254;11.454;2023-04-30T03:50:19;9.15;;;8.45;;
32812;SDS011;19162;48.254;11.454;2023-04-30T03:53:19;9.00;;;8.23;;
32812;SDS011;19162;48.254;11.454;2023-04-30T03:56:19;8.50;;;7.80;;
32812;SDS011;19162;48.254;11.454;2023-04-30T03:59:20;8.98;;;8.25;;
32812;SDS011;19162;48.254;11.454;2023-04-30T04:02:20;8.75;;;8.13;;
32812;SDS011;19162;48.254;11.454;2023-04-30T04:05:20;8.77;;;7.93;;
32812;SDS011;19162;48.254;11.454;2023-04-30T04:08:21;9.00;;;8.30;;
32812;SDS011;19162;48.254;11.454;2023-04-30T04:11:21;9.30;;;8.60;;
32812;SDS011;19162;48.254;11.454;2023-04-30T04:14:21;8.03;;;7.50;;
32812;SDS011;19162;48.254;11.454;2023-04-30T04:17:21;8.38;;;7.78;;
32812;SDS011;19162;48.254;11.454;2023-04-30T04:20:21;8.70;;;8.00;;
32812;SDS011;19162;48.254;11.454;2023-04-30T04:23:22;8.45;;;7.65;;
32812;SDS011;19162;48.254;11.454;2023-04-30T04:26:22;8.50;;;7.80;;
32812;SDS011;19162;48.254;11.454;2023-04-30T04:29:24;8.85;;;8.15;;
32812;SDS011;19162;48.254;11.454;2023-04-30T04:32:24;8.50;;;7.80;;
32812;SDS011;19162;48.254;11.454;2023-04-30T04:35:26;8.23;;;7.63;;
32812;SDS011;19162;48.254;11.454;2023-04-30T04:38:26;8.43;;;7.72;;
32812;SDS011;19162;48.254;11.454;2023-04-30T04:41:30;9.00;;;8.33;;
32812;SDS011;19162;48.254;11.454;2023-04-30T04:44:34;8.20;;;7.57;;
32812;SDS011;19162;48.254;11.454;2023-04-30T04:47:35;8.55;;;7.85;;
32812;SDS011;19162;48.254;11.454;2023-04-30T04:50:35;8.95;;;8.27;;
32812;SDS011;19162;48.254;11.454;2023-04-30T04:53:35;9.32;;;8.35;;
32812;SDS011;19162;48.254;11.454;2023-04-30T04:56:36;8.35;;;7.65;;
32812;SDS011;19162;48.254;11.454;2023-04-30T04:59:36;8.13;;;7.53;;
32812;SDS011;19162;48.254;11.454;2023-04-30T05:02:36;8.23;;;7.45;;
32812;SDS011;19162;48.254;11.454;2023-04-30T05:05:37;8.73;;;8.03;;
32812;SDS011;19162;48.254;11.454;2023-04-30T05:08:37;7.72;;;7.10;;
32812;SDS011;19162;48.254;11.454;2023-04-30T05:11:37;9.38;;;8.68;;
32812;SDS011;19162;48.254;11.454;2023-04-30T05:14:37;8.60;;;7.90;;
32812;SDS011;19162;48.254;11.454;2023-04-30T05:17:38;8.20;;;7.60;;
32812;SDS011;19162;48.254;11.454;2023-04-30T05:20:38;8.45;;;7.85;;
32812;SDS011;19162;48.254;11.454;2023-04-30T05:23:38;8.35;;;7.65;;
32812;SDS011;19162;48.254;11.454;2023-04-30T05:26:38;8.10;;;7.43;;
32812;SDS011;19162;48.254;11.454;2023-04-30T05:29:38;7.77;;;7.17;;
32812;SDS011;19162;48.254;11.454;2023-04-30T05:32:38;7.80;;;7.20;;
32812;SDS011;19162;48.254;11.454;2023-04-30T05:35:39;7.80;;;7.20;;
32812;SDS011;19162;48.254;11.454;2023-04-30T05:38:39;8.30;;;7.70;;
32812;SDS011;19162;48.254;11.454;2023-04-30T05:41:39;8.20;;;7.60;;
32812;SDS011;19162;48.254;11.454;2023-04-30T05:44:40;8.15;;;7.38;;
32812;SDS011;19162;48.254;11.454;2023-04-30T05:47:40;7.72;;;7.18;;
32812;SDS011;19162;48.254;11.454;2023-04-30T05:50:40;8.73;;;8.03;;
32812;SDS011;19162;48.254;11.454;2023-04-30T05:53:40;8.80;;;8.00;;
32812;SDS011;19162;48.254;11.454;2023-04-30T05:56:40;8.00;;;7.32;;
32812;SDS011;19162;48.254;11.454;2023-04-30T05:59:41;7.70;;;7.18;;
32812;SDS011;19162;48.254;11.454;2023-04-30T06:02:41;8.03;;;7.43;;
32812;SDS011;19162;48.254;11.454;2023-04-30T06:05:41;8.10;;;7.60;;
32812;SDS011;19162;48.254;11.454;2023-04-30T06:08:41;7.70;;;7.20;;
32812;SDS011;19162;48.254;11.454;2023-04-30T06:11:44;7.90;;;7.40;;
32812;SDS011;19162;48.254;11.454;2023-04-30T06:14:47;8.15;;;7.55;;
32812;SDS011;19162;48.254;11.454;2023-04-30T06:17:48;8.60;;;8.00;;
32812;SDS011;19162;48.254;11.454;2023-04-30T06:20:48;7.63;;;7.03;;
32812;SDS011;19162;48.254;11.454;2023-04-30T06:23:48;8.68;;;7.97;;
32812;SDS011;19162;48.254;11.454;2023-04-30T06:26:48;8.38;;;7.78;;
32812;SDS011;19162;48.254;11.454;2023-04-30T06:29:48;7.87;;;7.33;;
32812;SDS011;19162;48.254;11.454;2023-04-30T06:32:49;8.00;;;7.43;;
32812;SDS011;19162;48.254;11.454;2023-04-30T06:35:49;8.23;;;7.53;;
32812;SDS011;19162;48.254;11.454;2023-04-30T06:38:54;7.82;;;7.32;;
32812;SDS011;19162;48.254;11.454;2023-04-30T06:41:54;8.43;;;7.87;;
32812;SDS011;19162;48.254;11.454;2023-04-30T06:44:54;7.83;;;7.23;;
32812;SDS011;19162;48.254;11.454;2023-04-30T06:47:55;7.88;;;7.28;;
32812;SDS011;19162;48.254;11.454;2023-04-30T06:50:55;8.17;;;7.57;;
32812;SDS011;19162;48.254;11.454;2023-04-30T06:53:55;7.38;;;6.88;;
32812;SDS011;19162;48.254;11.454;2023-04-30T06:56:55;8.07;;;7.47;;
32812;SDS011;19162;48.254;11.454;2023-04-30T06:59:56;7.63;;;7.13;;
32812;SDS011;19162;48.254;11.454;2023-04-30T07:02:56;7.63;;;7.03;;
32812;SDS011;19162;48.254;11.454;2023-04-30T07:05:59;7.53;;;6.95;;
32812;SDS011;19162;48.254;11.454;2023-04-30T07:08:59;7.95;;;7.35;;
32812;SDS011;19162;48.254;11.454;2023-04-30T07:12:00;8.18;;;7.55;;
32812;SDS011;19162;48.254;11.454;2023-04-30T07:15:00;7.32;;;6.82;;
32812;SDS011;19162;48.254;11.454;2023-04-30T07:18:00;7.47;;;6.97;;
32812;SDS011;19162;48.254;11.454;2023-04-30T07:21:02;7.03;;;6.43;;
32812;SDS011;19162;48.254;11.454;2023-04-30T07:24:03;7.30;;;6.60;;
32812;SDS011;19162;48.254;11.454;2023-04-30T07:27:03;6.50;;;5.95;;
32812;SDS011;19162;48.254;11.454;2023-04-30T07:30:03;6.60;;;6.20;;
32812;SDS011;19162;48.254;11.454;2023-04-30T07:33:04;6.93;;;6.43;;
32812;SDS011;19162;48.254;11.454;2023-04-30T07:36:04;6.93;;;6.43;;
32812;SDS011;19162;48.254;11.454;2023-04-30T07:39:04;7.05;;;6.45;;
32812;SDS011;19162;48.254;11.454;2023-04-30T07:42:05;6.73;;;6.23;;
32812;SDS011;19162;48.254;11.454;2023-04-30T07:45:05;7.13;;;6.57;;
32812;SDS011;19162;48.254;11.454;2023-04-30T07:48:05;7.85;;;7.22;;
32812;SDS011;19162;48.254;11.454;2023-04-30T07:51:06;7.78;;;7.13;;
32812;SDS011;19162;48.254;11.454;2023-04-30T07:54:06;7.40;;;6.87;;
32812;SDS011;19162;48.254;11.454;2023-04-30T07:57:06;7.00;;;6.50;;
32812;SDS011;19162;48.254;11.454;2023-04-30T08:00:06;6.25;;;5.85;;
32812;SDS011;19162;48.254;11.454;2023-04-30T08:03:07;6.60;;;6.20;;
32812;SDS011;19162;48.254;11.454;2023-04-30T08:06:07;7.07;;;6.57;;
32812;SDS011;19162;48.254;11.454;2023-04-30T08:09:07;7.13;;;6.53;;
32812;SDS011;19162;48.254;11.454;2023-04-30T08:12:08;6.78;;;6.30;;
32812;SDS011;19162;48.254;11.454;2023-04-30T08:15:08;6.20;;;5.80;;
32812;SDS011;19162;48.254;11.454;2023-04-30T08:18:08;6.85;;;6.35;;
32812;SDS011;19162;48.254;11.454;2023-04-30T08:21:09;6.65;;;6.05;;
32812;SDS011;19162;48.254;11.454;2023-04-30T08:24:10;6.00;;;5.60;;
32812;SDS011;19162;48.254;11.454;2023-04-30T08:27:10;7.13;;;6.53;;
32812;SDS011;19162;48.254;11.454;2023-04-30T08:30:10;6.20;;;5.80;;
32812;SDS011;19162;48.254;11.454;2023-04-30T08:33:11;6.23;;;5.83;;
32812;SDS011;19162;48.254;11.454;2023-04-30T08:36:11;6.33;;;5.73;;
32812;SDS011;19162;48.254;11.454;2023-04-30T08:39:11;6.47;;;6.00;;
32812;SDS011;19162;48.254;11.454;2023-04-30T08:42:13;7.05;;;6.35;;
32812;SDS011;19162;48.254;11.454;2023-04-30T08:45:13;6.18;;;5.75;;
32812;SDS011;19162;48.254;11.454;2023-04-30T08:48:14;5.95;;;5.53;;
32812;SDS011;19162;48.254;11.454;2023-04-30T08:51:15;5.90;;;5.50;;
32812;SDS011;19162;48.254;11.454;2023-04-30T08:54:15;6.03;;;5.53;;
32812;SDS011;19162;48.254;11.454;2023-04-30T08:57:17;6.25;;;5.75;;
32812;SDS011;19162;48.254;11.454;2023-04-30T09:00:17;6.07;;;5.65;;
32812;SDS011;19162;48.254;11.454;2023-04-30T09:03:17;5.20;;;4.80;;
32812;SDS011;19162;48.254;11.454;2023-04-30T09:06:18;5.10;;;4.63;;
32812;SDS011;19162;48.254;11.454;2023-04-30T09:09:18;5.07;;;4.70;;
32812;SDS011;19162;48.254;11.454;2023-04-30T09:12:18;5.32;;;4.97;;
32812;SDS011;19162;48.254;11.454;2023-04-30T09:15:18;5.68;;;5.13;;
32812;SDS011;19162;48.254;11.454;2023-04-30T09:18:18;5.57;;;5.07;;
32812;SDS011;19162;48.254;11.454;2023-04-30T09:21:29;5.53;;;5.13;;
32812;SDS011;19162;48.254;11.454;2023-04-30T09:24:34;4.85;;;4.45;;
32812;SDS011;19162;48.254;11.454;2023-04-30T09:27:44;4.78;;;4.47;;
32812;SDS011;19162;48.254;11.454;2023-04-30T09:30:44;4.87;;;4.57;;
32812;SDS011;19162;48.254;11.454;2023-04-30T09:33:44;4.65;;;4.35;;
32812;SDS011;19162;48.254;11.454;2023-04-30T09:36:52;5.20;;;4.78;;
32812;SDS011;19162;48.254;11.454;2023-04-30T09:39:55;5.45;;;4.75;;
32812;SDS011;19162;48.254;11.454;2023-04-30T09:42:59;4.45;;;4.15;;
32812;SDS011;19162;48.254;11.454;2023-04-30T09:45:59;5.03;;;4.63;;
32812;SDS011;19162;48.254;11.454;2023-04-30T09:49:00;4.68;;;4.38;;
32812;SDS011;19162;48.254;11.454;2023-04-30T09:52:00;4.70;;;4.40;;
32812;SDS011;19162;48.254;11.454;2023-04-30T09:55:01;6.50;;;5.30;;
32812;SDS011;19162;48.254;11.454;2023-04-30T09:58:04;4.82;;;4.53;;
32812;SDS011;19162;48.254;11.454;2023-04-30T10:01:05;5.57;;;5.18;;
32812;SDS011;19162;48.254;11.454;2023-04-30T10:04:07;5.15;;;4.72;;
32812;SDS011;19162;48.254;11.454;2023-04-30T10:07:09;4.65;;;4.32;;
32812;SDS011;19162;48.254;11.454;2023-04-30T10:10:09;4.60;;;4.30;;
32812;SDS011;19162;48.254;11.454;2023-04-30T10:13:12;5.13;;;4.72;;
32812;SDS011;19162;48.254;11.454;2023-04-30T10:16:14;5.03;;;4.63;;
32812;SDS011;19162;48.254;11.454;2023-04-30T10:19:18;5.25;;;4.18;;
32812;SDS011;19162;48.254;11.454;2023-04-30T10:22:18;5.40;;;4.90;;
32812;SDS011;19162;48.254;11.454;2023-04-30T10:25:18;5.20;;;4.77;;
32812;SDS011;19162;48.254;11.454;2023-04-30T10:28:18;4.67;;;4.20;;
32812;SDS011;19162;48.254;11.454;2023-04-30T10:31:19;4.40;;;4.10;;
32812;SDS011;19162;48.254;11.454;2023-04-30T10:37:30;5.03;;;4.20;;
32812;SDS011;19162;48.254;11.454;2023-04-30T10:40:36;3.80;;;3.50;;
32812;SDS011;19162;48.254;11.454;2023-04-30T10:43:37;4.70;;;4.30;;
32812;SDS011;19162;48.254;11.454;2023-04-30T10:46:38;4.80;;;4.40;;
32812;SDS011;19162;48.254;11.454;2023-04-30T10:49:38;4.40;;;4.10;;
32812;SDS011;19162;48.254;11.454;2023-04-30T10:52:40;5.03;;;4.72;;
32812;SDS011;19162;48.254;11.454;2023-04-30T10:55:47;4.30;;;3.90;;
32812;SDS011;19162;48.254;11.454;2023-04-30T10:58:48;5.22;;;4.82;;
32812;SDS011;19162;48.254;11.454;2023-04-30T11:01:56;3.67;;;3.38;;
32812;SDS011;19162;48.254;11.454;2023-04-30T11:08:09;3.95;;;3.65;;
32812;SDS011;19162;48.254;11.454;2023-04-30T11:11:10;3.38;;;3.15;;
32812;SDS011;19162;48.254;11.454;2023-04-30T11:14:11;4.75;;;3.30;;
32812;SDS011;19162;48.254;11.454;2023-04-30T11:17:12;2.97;;;2.78;;
32812;SDS011;19162;48.254;11.454;2023-04-30T11:20:12;2.55;;;2.42;;
32812;SDS011;19162;48.254;11.454;2023-04-30T11:23:14;2.15;;;2.05;;
32812;SDS011;19162;48.254;11.454;2023-04-30T11:26:14;2.88;;;2.67;;
32812;SDS011;19162;48.254;11.454;2023-04-30T11:29:15;2.95;;;2.22;;
32812;SDS011;19162;48.254;11.454;2023-04-30T11:32:16;3.13;;;2.83;;
32812;SDS011;19162;48.254;11.454;2023-04-30T11:35:17;3.00;;;2.80;;
32812;SDS011;19162;48.254;11.454;2023-04-30T11:38:19;2.72;;;2.53;;
32812;SDS011;19162;48.254;11.454;2023-04-30T11:41:19;3.58;;;3.00;;
32812;SDS011;19162;48.254;11.454;2023-04-30T11:44:26;3.00;;;2.80;;
32812;SDS011;19162;48.254;11.454;2023-04-30T11:47:26;3.53;;;2.90;;
32812;SDS011;19162;48.254;11.454;2023-04-30T11:50:31;2.65;;;2.45;;
32812;SDS011;19162;48.254;11.454;2023-04-30T11:53:31;2.80;;;2.60;;
32812;SDS011;19162;48.254;11.454;2023-04-30T11:56:32;3.13;;;2.87;;
32812;SDS011;19162;48.254;11.454;2023-04-30T11:59:39;3.13;;;2.90;;
32812;SDS011;19162;48.254;11.454;2023-04-30T12:02:43;3.45;;;2.50;;
32812;SDS011;19162;48.254;11.454;2023-04-30T12:05:44;2.90;;;2.60;;
32812;SDS011;19162;48.254;11.454;2023-04-30T12:08:45;2.20;;;2.10;;
32812;SDS011;19162;48.254;11.454;2023-04-30T12:11:45;2.53;;;2.35;;
32812;SDS011;19162;48.254;11.454;2023-04-30T12:14:46;2.83;;;2.63;;
32812;SDS011;19162;48.254;11.454;2023-04-30T12:17:47;2.92;;;2.72;;
32812;SDS011;19162;48.254;11.454;2023-04-30T12:20:47;2.83;;;2.47;;
32812;SDS011;19162;48.254;11.454;2023-04-30T12:23:47;2.50;;;2.40;;
32812;SDS011;19162;48.254;11.454;2023-04-30T12:26:48;3.00;;;2.80;;
32812;SDS011;19162;48.254;11.454;2023-04-30T12:29:48;2.85;;;2.65;;
32812;SDS011;19162;48.254;11.454;2023-04-30T12:32:50;2.60;;;2.50;;
32812;SDS011;19162;48.254;11.454;2023-04-30T12:35:51;2.53;;;2.33;;
32812;SDS011;19162;48.254;11.454;2023-04-30T12:38:59;3.25;;;3.05;;
32812;SDS011;19162;48.254;11.454;2023-04-30T12:42:00;3.13;;;2.92;;
32812;SDS011;19162;48.254;11.454;2023-04-30T12:45:00;2.47;;;2.27;;
32812;SDS011;19162;48.254;11.454;2023-04-30T12:48:00;2.58;;;2.00;;
32812;SDS011;19162;48.254;11.454;2023-04-30T12:51:01;3.50;;;2.80;;
32812;SDS011;19162;48.254;11.454;2023-04-30T12:54:01;3.53;;;2.70;;
32812;SDS011;19162;48.254;11.454;2023-04-30T12:57:03;2.90;;;2.70;;
32812;SDS011;19162;48.254;11.454;2023-04-30T13:00:03;2.25;;;2.13;;
32812;SDS011;19162;48.254;11.454;2023-04-30T13:03:04;4.82;;;2.20;;
32812;SDS011;19162;48.254;11.454;2023-04-30T13:06:05;2.78;;;2.58;;
32812;SDS011;19162;48.254;11.454;2023-04-30T13:09:06;3.25;;;2.70;;
32812;SDS011;19162;48.254;11.454;2023-04-30T13:12:06;2.50;;;2.30;;
32812;SDS011;19162;48.254;11.454;2023-04-30T13:15:06;2.60;;;2.40;;
32812;SDS011;19162;48.254;11.454;2023-04-30T13:18:06;2.45;;;2.30;;
32812;SDS011;19162;48.254;11.454;2023-04-30T13:21:10;2.22;;;2.08;;
32812;SDS011;19162;48.254;11.454;2023-04-30T13:24:11;2.33;;;2.00;;
32812;SDS011;19162;48.254;11.454;2023-04-30T13:27:11;2.93;;;2.73;;
32812;SDS011;19162;48.254;11.454;2023-04-30T13:30:12;2.67;;;2.47;;
32812;SDS011;19162;48.254;11.454;2023-04-30T13:33:12;2.90;;;2.70;;
32812;SDS011;19162;48.254;11.454;2023-04-30T13:36:12;2.13;;;2.03;;
32812;SDS011;19162;48.254;11.454;2023-04-30T13:39:12;2.83;;;2.63;;
32812;SDS011;19162;48.254;11.454;2023-04-30T13:42:13;2.50;;;2.30;;
32812;SDS011;19162;48.254;11.454;2023-04-30T13:45:13;2.33;;;2.13;;
32812;SDS011;19162;48.254;11.454;2023-04-30T13:48:13;2.23;;;2.13;;
32812;SDS011;19162;48.254;11.454;2023-04-30T13:51:13;2.37;;;2.27;;
32812;SDS011;19162;48.254;11.454;2023-04-30T13:54:14;2.70;;;2.50;;
32812;SDS011;19162;48.254;11.454;2023-04-30T13:57:14;2.97;;;2.70;;
32812;SDS011;19162;48.254;11.454;2023-04-30T14:00:14;6.73;;;3.13;;
32812;SDS011;19162;48.254;11.454;2023-04-30T14:03:15;2.95;;;2.58;;
32812;SDS011;19162;48.254;11.454;2023-04-30T14:06:16;3.08;;;2.47;;
32812;SDS011;19162;48.254;11.454;2023-04-30T14:09:16;3.08;;;2.88;;
32812;SDS011;19162;48.254;11.454;2023-04-30T14:12:17;3.10;;;2.90;;
32812;SDS011;19162;48.254;11.454;2023-04-30T14:15:17;3.20;;;2.40;;
32812;SDS011;19162;48.254;11.454;2023-04-30T14:18:17;3.00;;;2.80;;
32812;SDS011;19162;48.254;11.454;2023-04-30T14:21:21;2.53;;;2.35;;
32812;SDS011;19162;48.254;11.454;2023-04-30T14:24:21;2.80;;;2.63;;
32812;SDS011;19162;48.254;11.454;2023-04-30T14:27:21;3.13;;;2.92;;
32812;SDS011;19162;48.254;11.454;2023-04-30T14:30:22;2.55;;;2.33;;
32812;SDS011;19162;48.254;11.454;2023-04-30T14:33:22;2.77;;;2.57;;
32812;SDS011;19162;48.254;11.454;2023-04-30T14:36:22;2.65;;;2.45;;
32812;SDS011;19162;48.254;11.454;2023-04-30T14:39:23;2.72;;;2.53;;
32812;SDS011;19162;48.254;11.454;2023-04-30T14:42:23;5.05;;;2.70;;
32812;SDS011;19162;48.254;11.454;2023-04-30T14:45:23;2.80;;;2.60;;
32812;SDS011;19162;48.254;11.454;2023-04-30T14:48:23;2.70;;;2.50;;
32812;SDS011;19162;48.254;11.454;2023-04-30T14:51:24;2.55;;;2.35;;
32812;SDS011;19162;48.254;11.454;2023-04-30T14:54:24;2.92;;;2.72;;
32812;SDS011;19162;48.254;11.454;2023-04-30T14:57:24;2.38;;;2.20;;
32812;SDS011;19162;48.254;11.454;2023-04-30T15:00:25;5.93;;;5.43;;
32812;SDS011;19162;48.254;11.454;2023-04-30T15:03:25;2.38;;;2.17;;
32812;SDS011;19162;48.254;11.454;2023-04-30T15:06:25;2.50;;;2.40;;
32812;SDS011;19162;48.254;11.454;2023-04-30T15:09:25;2.85;;;2.65;;
32812;SDS011;19162;48.254;11.454;2023-04-30T15:12:26;3.28;;;2.10;;
32812;SDS011;19162;48.254;11.454;2023-04-30T15:15:26;2.55;;;2.35;;
32812;SDS011;19162;48.254;11.454;2023-04-30T15:18:28;2.30;;;2.10;;
32812;SDS011;19162;48.254;11.454;2023-04-30T15:21:28;2.23;;;2.03;;
32812;SDS011;19162;48.254;11.454;2023-04-30T15:24:28;2.00;;;1.90;;
32812;SDS011;19162;48.254;11.454;2023-04-30T15:27:29;2.05;;;1.95;;
32812;SDS011;19162;48.254;11.454;2023-04-30T15:30:29;3.15;;;2.95;;
32812;SDS011;19162;48.254;11.454;2023-04-30T15:33:29;3.08;;;2.70;;
32812;SDS011;19162;48.254;11.454;2023-04-30T15:36:30;2.25;;;2.00;;
32812;SDS011;19162;48.254;11.454;2023-04-30T15:39:31;3.33;;;2.53;;
32812;SDS011;19162;48.254;11.454;2023-04-30T15:42:31;2.83;;;2.63;;
32812;SDS011;19162;48.254;11.454;2023-04-30T15:45:32;2.42;;;2.22;;
32812;SDS011;19162;48.254;11.454;2023-04-30T15:48:32;2.10;;;2.00;;
32812;SDS011;19162;48.254;11.454;2023-04-30T15:51:32;2.33;;;2.13;;
32812;SDS011;19162;48.254;11.454;2023-04-30T15:54:34;2.30;;;2.03;;
32812;SDS011;19162;48.254;11.454;2023-04-30T15:57:34;2.58;;;2.38;;
32812;SDS011;19162;48.254;11.454;2023-04-30T16:00:34;2.75;;;2.50;;
32812;SDS011;19162;48.254;11.454;2023-04-30T16:03:34;2.40;;;2.20;;
32812;SDS011;19162;48.254;11.454;2023-04-30T16:06:36;2.45;;;2.25;;
32812;SDS011;19162;48.254;11.454;2023-04-30T16:09:36;1.97;;;1.87;;
32812;SDS011;19162;48.254;11.454;2023-04-30T16:12:37;3.00;;;2.10;;
32812;SDS011;19162;48.254;11.454;2023-04-30T16:15:38;3.05;;;2.83;;
32812;SDS011;19162;48.254;11.454;2023-04-30T16:18:38;2.70;;;2.50;;
32812;SDS011;19162;48.254;11.454;2023-04-30T16:21:39;2.70;;;2.50;;
32812;SDS011;19162;48.254;11.454;2023-04-30T16:24:39;3.08;;;2.72;;
32812;SDS011;19162;48.254;11.454;2023-04-30T16:27:40;2.67;;;2.38;;
32812;SDS011;19162;48.254;11.454;2023-04-30T16:30:42;3.00;;;2.65;;
32812;SDS011;19162;48.254;11.454;2023-04-30T16:33:42;3.08;;;2.78;;
32812;SDS011;19162;48.254;11.454;2023-04-30T16:36:42;3.00;;;2.67;;
32812;SDS011;19162;48.254;11.454;2023-04-30T16:39:43;4.03;;;2.67;;
32812;SDS011;19162;48.254;11.454;2023-04-30T16:42:43;2.87;;;2.60;;
32812;SDS011;19162;48.254;11.454;2023-04-30T16:45:43;3.10;;;2.90;;
32812;SDS011;19162;48.254;11.454;2023-04-30T16:48:43;3.30;;;3.10;;
32812;SDS011;19162;48.254;11.454;2023-04-30T16:51:43;4.00;;;3.43;;
32812;SDS011;19162;48.254;11.454;2023-04-30T16:54:44;3.38;;;3.08;;
32812;SDS011;19162;48.254;11.454;2023-04-30T16:57:45;3.25;;;2.95;;
32812;SDS011;19162;48.254;11.454;2023-04-30T17:00:45;3.22;;;2.95;;
32812;SDS011;19162;48.254;11.454;2023-04-30T17:03:45;3.40;;;3.10;;
32812;SDS011;19162;48.254;11.454;2023-04-30T17:06:45;3.25;;;2.90;;
32812;SDS011;19162;48.254;11.454;2023-04-30T17:09:46;3.13;;;2.92;;
32812;SDS011;19162;48.254;11.454;2023-04-30T17:12:47;3.65;;;2.58;;
32812;SDS011;19162;48.254;11.454;2023-04-30T17:15:47;2.77;;;2.57;;
32812;SDS011;19162;48.254;11.454;2023-04-30T17:18:47;3.95;;;3.30;;
32812;SDS011;19162;48.254;11.454;2023-04-30T17:21:49;3.05;;;2.75;;
32812;SDS011;19162;48.254;11.454;2023-04-30T17:24:49;4.55;;;2.65;;
32812;SDS011;19162;48.254;11.454;2023-04-30T17:27:49;2.72;;;2.53;;
32812;SDS011;19162;48.254;11.454;2023-04-30T17:30:49;3.08;;;2.85;;
32812;SDS011;19162;48.254;11.454;2023-04-30T17:33:50;2.80;;;2.60;;
32812;SDS011;19162;48.254;11.454;2023-04-30T17:36:50;2.75;;;2.55;;
32812;SDS011;19162;48.254;11.454;2023-04-30T17:39:50;3.33;;;2.97;;
32812;SDS011;19162;48.254;11.454;2023-04-30T17:42:50;2.85;;;2.65;;
32812;SDS011;19162;48.254;11.454;2023-04-30T17:45:50;3.25;;;3.00;;
32812;SDS011;19162;48.254;11.454;2023-04-30T17:48:52;2.65;;;2.55;;
32812;SDS011;19162;48.254;11.454;2023-04-30T17:51:52;3.10;;;2.90;;
32812;SDS011;19162;48.254;11.454;2023-04-30T17:54:52;3.28;;;2.97;;
32812;SDS011;19162;48.254;11.454;2023-04-30T17:57:52;5.67;;;2.97;;
32812;SDS011;19162;48.254;11.454;2023-04-30T18:00:53;3.63;;;3.33;;
32812;SDS011;19162;48.254;11.454;2023-04-30T18:03:57;3.40;;;3.13;;
32812;SDS011;19162;48.254;11.454;2023-04-30T18:06:57;4.75;;;3.40;;
32812;SDS011;19162;48.254;11.454;2023-04-30T18:09:58;4.13;;;3.83;;